createdAt,value
2022-08-03T00:01:49.571Z,100.00
2022-08-03T00:04:16.064Z,100.00
2022-08-03T00:06:43.269Z,100.00
2022-08-03T00:09:10.325Z,100.00
2022-08-03T00:11:37.040Z,100.00
2022-08-03T00:14:07.603Z,100.00
2022-08-03T00:16:34.340Z,100.00
2022-08-03T00:19:02.169Z,100.00
2022-08-03T00:21:29.262Z,100.00
2022-08-03T00:23:56.201Z,100.00
2022-08-03T00:26:22.970Z,100.00
2022-08-03T00:28:50.457Z,100.00
2022-08-03T00:31:26.477Z,100.00
2022-08-03T00:34:04.999Z,100.00
2022-08-03T00:36:32.538Z,100.00
2022-08-03T00:38:58.947Z,100.00
2022-08-03T00:41:25.341Z,100.00
2022-08-03T00:43:51.747Z,100.00
2022-08-03T00:46:21.726Z,100.00
2022-08-03T00:48:53.244Z,100.00
2022-08-03T00:51:21.596Z,100.00
2022-08-03T00:53:48.150Z,100.00
2022-08-03T00:56:16.061Z,100.00
2022-08-03T00:58:45.038Z,100.00
2022-08-03T01:01:12.500Z,100.00
2022-08-03T01:03:39.614Z,100.00
2022-08-03T01:06:20.019Z,100.00
2022-08-03T01:08:58.550Z,100.00
2022-08-03T01:11:36.941Z,100.00
2022-08-03T01:14:51.838Z,100.00
2022-08-03T01:17:40.088Z,100.00
2022-08-03T01:20:11.631Z,100.00
2022-08-03T01:23:16.262Z,100.00
2022-08-03T01:26:06.108Z,100.00
2022-08-03T01:28:54.637Z,100.00
2022-08-03T01:31:26.230Z,100.00
2022-08-03T01:34:01.741Z,100.00
2022-08-03T01:36:35.319Z,100.00
2022-08-03T01:39:09.205Z,100.00
2022-08-03T01:41:42.450Z,100.00
2022-08-03T01:44:28.580Z,100.00
2022-08-03T01:47:00.812Z,100.00
2022-08-03T01:49:30.544Z,100.00
2022-08-03T01:52:04.284Z,100.00
2022-08-03T01:54:40.721Z,100.00
2022-08-03T01:57:08.505Z,100.00
2022-08-03T01:59:36.321Z,100.00
2022-08-03T02:02:27.725Z,100.00
2022-08-03T02:04:55.659Z,100.00
2022-08-03T02:07:23.576Z,100.00
2022-08-03T02:09:52.534Z,100.00
2022-08-03T02:12:20.784Z,100.00
2022-08-03T02:14:49.447Z,100.00
2022-08-03T02:17:16.575Z,100.00
2022-08-03T02:19:43.892Z,100.00
2022-08-03T02:22:12.943Z,100.00
2022-08-03T02:24:40.003Z,100.00
2022-08-03T02:27:14.922Z,100.00
2022-08-03T02:29:42.520Z,100.00
2022-08-03T02:32:12.573Z,100.00
2022-08-03T02:34:42.205Z,100.00
2022-08-03T02:37:11.960Z,100.00
2022-08-03T02:39:41.006Z,100.00
2022-08-03T02:42:09.719Z,100.00
2022-08-03T02:44:41.549Z,100.00
2022-08-03T02:47:11.665Z,100.00
2022-08-03T02:49:51.025Z,100.00
2022-08-03T02:52:21.542Z,100.00
2022-08-03T02:54:51.434Z,100.00
2022-08-03T02:57:20.501Z,100.00
2022-08-03T02:59:49.928Z,100.00
2022-08-03T03:02:18.503Z,100.00
2022-08-03T03:05:01.316Z,100.00
2022-08-03T03:07:46.878Z,100.00
2022-08-03T03:10:22.142Z,100.00
2022-08-03T03:12:54.988Z,100.00
2022-08-03T03:15:24.649Z,100.00
2022-08-03T03:17:54.557Z,100.00
2022-08-03T03:20:29.332Z,100.00
2022-08-03T03:22:59.564Z,100.00
2022-08-03T03:25:26.526Z,100.00
2022-08-03T03:27:53.260Z,100.00
2022-08-03T03:30:19.687Z,100.00
2022-08-03T03:32:46.473Z,100.00
2022-08-03T03:35:14.855Z,100.00
2022-08-03T03:37:41.259Z,100.00
2022-08-03T03:40:09.650Z,100.00
2022-08-03T03:42:38.670Z,100.00
2022-08-03T03:45:06.743Z,100.00
2022-08-03T03:47:34.201Z,100.00
2022-08-03T03:50:02.113Z,100.00
2022-08-03T03:52:28.565Z,100.00
2022-08-03T03:55:00.485Z,100.00
2022-08-03T03:57:27.856Z,100.00
2022-08-03T03:59:54.391Z,100.00
2022-08-03T04:02:20.952Z,100.00
2022-08-03T04:05:05.747Z,100.00
2022-08-03T04:08:03.011Z,100.00
2022-08-03T04:10:52.813Z,100.00
2022-08-03T04:13:21.707Z,100.00
2022-08-03T04:15:50.270Z,100.00
2022-08-03T04:18:19.388Z,100.00
2022-08-03T04:20:48.773Z,100.00
2022-08-03T04:23:19.596Z,100.00
2022-08-03T04:25:49.020Z,100.00
2022-08-03T04:28:30.125Z,100.00
2022-08-03T04:31:03.286Z,100.00
2022-08-03T04:33:32.434Z,100.00
2022-08-03T04:36:03.690Z,100.00
2022-08-03T04:38:36.574Z,100.00
2022-08-03T04:41:03.565Z,100.00
2022-08-03T04:43:32.760Z,100.00
2022-08-03T04:46:01.108Z,100.00
2022-08-03T04:48:28.446Z,100.00
2022-08-03T04:50:55.453Z,100.00
2022-08-03T04:53:23.264Z,100.00
2022-08-03T04:55:49.787Z,100.00
2022-08-03T04:58:17.767Z,100.00
2022-08-03T05:00:45.847Z,100.00
2022-08-03T05:03:19.450Z,100.00
2022-08-03T05:05:50.893Z,100.00
2022-08-03T05:08:20.535Z,100.00
2022-08-03T05:10:54.128Z,100.00
2022-08-03T05:13:20.553Z,100.00
2022-08-03T05:15:46.982Z,100.00
2022-08-03T05:18:14.317Z,100.00
2022-08-03T05:20:41.258Z,100.00
2022-08-03T05:23:07.820Z,100.00
2022-08-03T05:25:34.321Z,100.00
2022-08-03T05:28:00.919Z,100.00
2022-08-03T05:30:33.671Z,100.00
2022-08-03T05:33:02.549Z,100.00
2022-08-03T05:35:55.643Z,100.00
2022-08-03T05:38:28.139Z,100.00
2022-08-03T05:40:57.593Z,100.00
2022-08-03T05:43:44.182Z,100.00
2022-08-03T05:46:12.441Z,100.00
2022-08-03T05:48:40.032Z,100.00
2022-08-03T05:51:07.945Z,100.00
2022-08-03T05:53:35.447Z,100.00
2022-08-03T05:56:13.238Z,100.00
2022-08-03T05:58:45.893Z,100.00
2022-08-03T06:01:12.454Z,100.00
2022-08-03T06:03:39.727Z,100.00
2022-08-03T06:06:06.453Z,100.00
2022-08-03T06:08:32.995Z,100.00
2022-08-03T06:10:59.607Z,100.00
2022-08-03T06:13:25.983Z,100.00
2022-08-03T06:15:52.429Z,100.00
2022-08-03T06:18:19.072Z,100.00
2022-08-03T06:20:45.531Z,100.00
2022-08-03T06:23:16.080Z,100.00
2022-08-03T06:25:44.752Z,100.00
2022-08-03T06:28:35.375Z,100.00
2022-08-03T06:30:59.335Z,100.00
2022-08-03T06:34:31.161Z,100.00
2022-08-03T06:36:13.681Z,100.00
2022-08-03T06:38:40.845Z,100.00
2022-08-03T06:41:07.980Z,100.00
2022-08-03T06:43:38.026Z,100.00
2022-08-03T06:46:24.839Z,100.00
2022-08-03T06:48:52.933Z,100.00
2022-08-03T06:51:19.586Z,100.00
2022-08-03T06:53:45.970Z,100.00
2022-08-03T06:56:12.367Z,100.00
2022-08-03T06:58:38.748Z,100.00
2022-08-03T07:01:05.274Z,100.00
2022-08-03T07:03:31.783Z,100.00
2022-08-03T07:05:59.744Z,100.00
2022-08-03T07:08:34.306Z,100.00
2022-08-03T07:11:01.954Z,100.00
2022-08-03T07:13:28.355Z,100.00
2022-08-03T07:15:56.586Z,100.00
2022-08-03T07:18:29.087Z,100.00
2022-08-03T07:20:59.706Z,100.00
2022-08-03T07:23:26.085Z,98.37
2022-08-03T07:25:52.831Z,99.26
2022-08-03T07:28:19.943Z,100.00
2022-08-03T07:30:46.937Z,100.00
2022-08-03T07:33:14.177Z,99.05
2022-08-03T07:35:43.270Z,100.00
2022-08-03T07:38:09.771Z,98.65
2022-08-03T07:40:36.273Z,96.41
2022-08-03T07:43:03.721Z,100.00
2022-08-03T07:45:31.639Z,92.65
2022-08-03T07:47:58.947Z,94.91
2022-08-03T07:50:26.486Z,87.06
2022-08-03T07:52:54.001Z,92.49
2022-08-03T07:55:25.273Z,88.21
2022-08-03T07:58:19.153Z,88.29
2022-08-03T08:00:48.945Z,86.33
2022-08-03T08:03:15.406Z,80.47
2022-08-03T08:05:41.867Z,77.58
2022-08-03T08:08:09.025Z,75.50
2022-08-03T08:10:35.927Z,76.36
2022-08-03T08:13:04.023Z,78.29
2022-08-03T08:15:31.580Z,81.00
2022-08-03T08:17:59.944Z,83.98
2022-08-03T08:20:34.988Z,76.43
2022-08-03T08:23:22.312Z,78.37
2022-08-03T08:25:54.103Z,80.76
2022-08-03T08:28:32.908Z,75.69
2022-08-03T08:31:00.651Z,69.19
2022-08-03T08:33:37.344Z,71.08
2022-08-03T08:36:15.558Z,72.64
2022-08-03T08:38:44.527Z,71.57
2022-08-03T08:41:12.916Z,48.61
2022-08-03T08:43:40.064Z,50.24
2022-08-03T08:46:10.294Z,41.95
2022-08-03T08:48:41.804Z,43.16
2022-08-03T08:51:09.872Z,48.42
2022-08-03T08:53:37.402Z,39.69
2022-08-03T08:56:05.303Z,39.38
2022-08-03T08:58:37.977Z,38.27
2022-08-03T09:01:05.787Z,38.87
2022-08-03T09:03:34.230Z,40.98
2022-08-03T09:06:02.632Z,39.22
2022-08-03T09:08:32.038Z,39.86
2022-08-03T09:10:59.502Z,40.26
2022-08-03T09:13:26.193Z,40.04
2022-08-03T09:16:14.894Z,41.14
2022-08-03T09:18:54.381Z,41.60
2022-08-03T09:21:34.314Z,41.41
2022-08-03T09:24:05.655Z,40.63
2022-08-03T09:26:38.630Z,42.31
2022-08-03T09:29:14.562Z,38.10
2022-08-03T09:31:46.734Z,36.08
2022-08-03T09:34:16.425Z,35.40
2022-08-03T09:36:46.367Z,34.70
2022-08-03T09:39:18.730Z,36.61
2022-08-03T09:41:48.268Z,36.77
2022-08-03T09:44:24.158Z,34.42
2022-08-03T09:46:56.304Z,35.98
2022-08-03T09:49:25.245Z,36.91
2022-08-03T09:52:37.909Z,36.07
2022-08-03T09:54:39.214Z,34.58
2022-08-03T09:57:05.712Z,36.12
2022-08-03T09:59:34.042Z,38.58
2022-08-03T10:02:01.900Z,35.98
2022-08-03T10:04:29.214Z,34.25
2022-08-03T10:07:10.022Z,37.20
2022-08-03T10:09:37.621Z,34.64
2022-08-03T10:12:09.605Z,37.51
2022-08-03T10:14:37.356Z,35.52
2022-08-03T10:17:03.993Z,33.08
2022-08-03T10:19:30.464Z,33.11
2022-08-03T10:22:03.084Z,32.95
2022-08-03T10:24:30.844Z,35.20
2022-08-03T10:27:03.902Z,34.40
2022-08-03T10:29:42.765Z,32.49
2022-08-03T10:32:19.809Z,31.51
2022-08-03T10:34:49.808Z,33.53
2022-08-03T10:37:17.875Z,33.78
2022-08-03T10:39:54.552Z,33.31
2022-08-03T10:42:24.103Z,34.97
2022-08-03T10:45:14.945Z,33.72
2022-08-03T10:47:42.057Z,32.91
2022-08-03T10:50:09.760Z,32.84
2022-08-03T10:52:40.997Z,36.43
2022-08-03T10:55:53.527Z,33.38
2022-08-03T10:58:53.460Z,35.36
2022-08-03T11:01:58.061Z,36.88
2022-08-03T11:04:26.597Z,34.97
2022-08-03T11:07:19.770Z,35.44
2022-08-03T11:09:48.905Z,34.20
2022-08-03T11:12:32.306Z,32.61
2022-08-03T11:15:02.259Z,33.18
2022-08-03T11:17:29.046Z,32.75
2022-08-03T11:19:56.845Z,33.05
2022-08-03T11:22:25.369Z,32.16
2022-08-03T11:24:54.084Z,31.35
2022-08-03T11:27:28.676Z,32.88
2022-08-03T11:30:26.561Z,34.26
2022-08-03T11:32:57.945Z,35.52
2022-08-03T11:35:33.759Z,33.22
2022-08-03T11:38:03.426Z,32.39
2022-08-03T11:40:36.208Z,33.48
2022-08-03T11:43:21.643Z,32.64
2022-08-03T11:46:28.590Z,33.37
2022-08-03T11:49:09.089Z,35.54
2022-08-03T11:51:41.071Z,35.65
2022-08-03T11:54:10.110Z,34.96
2022-08-03T11:56:48.421Z,34.20
2022-08-03T11:59:19.881Z,34.54
2022-08-03T12:01:47.911Z,33.33
2022-08-03T12:04:16.254Z,32.51
2022-08-03T12:06:58.384Z,29.56
2022-08-03T12:09:25.803Z,30.00
2022-08-03T12:11:59.784Z,31.55
2022-08-03T12:14:49.019Z,32.13
2022-08-03T12:17:14.093Z,30.46
2022-08-03T12:19:44.876Z,32.24
2022-08-03T12:22:11.564Z,31.34
2022-08-03T12:24:46.784Z,30.56
2022-08-03T12:27:23.264Z,30.02
2022-08-03T12:29:57.215Z,30.98
2022-08-03T12:32:26.274Z,30.93
2022-08-03T12:34:52.767Z,31.58
2022-08-03T12:37:22.571Z,32.07
2022-08-03T12:40:02.891Z,30.93
2022-08-03T12:42:39.489Z,30.84
2022-08-03T12:45:27.563Z,30.41
2022-08-03T12:47:58.767Z,29.45
2022-08-03T12:50:31.503Z,29.17
2022-08-03T12:53:04.527Z,29.56
2022-08-03T12:55:56.610Z,28.05
2022-08-03T12:58:36.085Z,27.64
2022-08-03T13:01:10.154Z,30.05
2022-08-03T13:03:49.696Z,29.90
2022-08-03T13:06:19.691Z,30.58
2022-08-03T13:08:47.964Z,30.32
2022-08-03T13:11:57.838Z,30.53
2022-08-03T13:14:19.952Z,30.88
2022-08-03T13:16:47.563Z,32.70
2022-08-03T13:19:15.248Z,33.37
2022-08-03T13:21:53.814Z,32.82
2022-08-03T13:24:29.759Z,33.32
2022-08-03T13:26:57.022Z,34.46
2022-08-03T13:29:23.848Z,33.85
2022-08-03T13:31:51.287Z,34.04
2022-08-03T13:34:22.993Z,35.22
2022-08-03T13:39:57.993Z,35.44
2022-08-03T13:42:23.058Z,35.51
2022-08-03T13:44:49.436Z,35.68
2022-08-03T13:47:16.189Z,35.84
2022-08-03T13:49:42.907Z,35.11
2022-08-03T13:52:29.602Z,35.13
2022-08-03T13:54:56.037Z,35.57
2022-08-03T13:58:06.616Z,36.04
2022-08-03T14:00:09.761Z,36.15
2022-08-03T14:02:36.507Z,35.71
2022-08-03T14:05:03.022Z,36.93
2022-08-03T14:07:29.432Z,36.86
2022-08-03T14:09:56.871Z,38.10
2022-08-03T14:12:23.366Z,39.33
2022-08-03T14:14:49.787Z,40.32
2022-08-03T14:17:16.732Z,40.58
2022-08-03T14:19:53.015Z,40.64
2022-08-03T14:22:21.142Z,40.68
2022-08-03T14:24:49.375Z,42.28
2022-08-03T14:27:16.188Z,43.04
2022-08-03T14:29:42.601Z,42.32
2022-08-03T14:32:11.640Z,42.84
2022-08-03T14:34:39.300Z,41.64
2022-08-03T14:37:05.916Z,41.05
2022-08-03T14:42:21.565Z,41.65
2022-08-03T14:44:48.055Z,41.76
2022-08-03T14:47:14.821Z,42.29
2022-08-03T14:50:31.386Z,42.65
2022-08-03T14:52:28.274Z,43.27
2022-08-03T14:54:54.762Z,42.46
2022-08-03T14:57:21.984Z,43.29
2022-08-03T14:59:56.267Z,43.69
2022-08-03T15:02:24.425Z,44.03
2022-08-03T15:04:51.513Z,43.80
2022-08-03T15:07:18.707Z,45.20
2022-08-03T15:09:45.259Z,44.77
2022-08-03T15:12:11.848Z,45.28
2022-08-03T15:14:41.457Z,44.73
2022-08-03T15:17:07.934Z,43.44
2022-08-03T15:20:03.796Z,43.88
2022-08-03T15:22:25.227Z,43.11
2022-08-03T15:25:02.257Z,43.92
2022-08-03T15:27:29.157Z,43.93
2022-08-03T15:30:05.485Z,44.75
2022-08-03T15:32:36.422Z,44.91
2022-08-03T15:35:03.448Z,44.37
2022-08-03T15:37:30.260Z,44.23
2022-08-03T15:39:59.642Z,44.23
2022-08-03T15:42:30.913Z,45.48
2022-08-03T15:44:57.326Z,45.05
2022-08-03T15:47:23.765Z,46.78
2022-08-03T15:49:50.569Z,46.40
2022-08-03T15:52:16.992Z,46.58
2022-08-03T15:54:43.394Z,46.59
2022-08-03T15:57:09.819Z,46.89
2022-08-03T15:59:36.334Z,47.06
2022-08-03T16:02:05.993Z,48.08
2022-08-03T16:04:33.493Z,46.70
2022-08-03T16:07:00.095Z,46.30
2022-08-03T16:09:43.408Z,46.97
2022-08-03T16:12:11.819Z,47.68
2022-08-03T16:14:52.377Z,47.63
2022-08-03T16:17:20.549Z,48.93
2022-08-03T16:19:47.500Z,49.57
2022-08-03T16:22:14.359Z,49.03
2022-08-03T16:24:42.240Z,49.13
2022-08-03T16:27:17.444Z,49.32
2022-08-03T16:29:58.021Z,49.79
2022-08-03T16:32:24.433Z,49.30
2022-08-03T16:34:50.835Z,49.20
2022-08-03T16:37:37.744Z,49.64
2022-08-03T16:40:17.676Z,50.09
2022-08-03T16:42:46.252Z,50.50
2022-08-03T16:45:13.395Z,49.91
2022-08-03T16:47:39.942Z,51.27
2022-08-03T16:50:15.501Z,51.18
2022-08-03T16:52:47.031Z,50.92
2022-08-03T16:55:15.314Z,52.33
2022-08-03T16:57:58.569Z,52.58
2022-08-03T17:00:33.792Z,52.93
2022-08-03T17:03:04.448Z,52.08
2022-08-03T17:05:46.854Z,52.73
2022-08-03T17:08:14.415Z,52.12
2022-08-03T17:10:45.403Z,52.80
2022-08-03T17:13:21.668Z,51.46
2022-08-03T17:15:57.987Z,52.77
2022-08-03T17:18:33.986Z,54.03
2022-08-03T17:21:05.804Z,52.62
2022-08-03T17:23:46.502Z,51.64
2022-08-03T17:26:21.323Z,51.79
2022-08-03T17:28:57.996Z,51.77
2022-08-03T17:31:31.826Z,52.88
2022-08-03T17:34:00.612Z,53.75
2022-08-03T17:36:47.581Z,54.04
2022-08-03T17:39:16.946Z,54.00
2022-08-03T17:41:48.967Z,53.50
2022-08-03T17:44:28.915Z,54.08
2022-08-03T17:47:01.564Z,54.22
2022-08-03T17:49:27.966Z,59.88
2022-08-03T17:52:01.410Z,62.04
2022-08-03T17:55:55.831Z,63.17
2022-08-03T17:58:06.453Z,69.73
2022-08-03T18:00:59.650Z,74.01
2022-08-03T18:03:57.950Z,76.70
2022-08-03T18:06:31.195Z,80.44
2022-08-03T18:10:03.731Z,80.61
2022-08-03T18:11:58.133Z,81.74
2022-08-03T18:14:27.408Z,85.52
2022-08-03T18:17:01.532Z,89.68
2022-08-03T18:20:02.008Z,91.82
2022-08-03T18:22:20.952Z,93.32
2022-08-03T18:24:52.946Z,93.69
2022-08-03T18:27:21.160Z,94.07
2022-08-03T18:29:50.332Z,94.47
2022-08-03T18:32:20.062Z,96.54
2022-08-03T18:34:54.156Z,100.00
2022-08-03T18:37:25.115Z,100.00
2022-08-03T18:39:55.758Z,100.00
2022-08-03T18:42:26.282Z,100.00
2022-08-03T18:44:56.206Z,100.00
2022-08-03T18:47:50.581Z,100.00
2022-08-03T18:50:30.532Z,100.00
2022-08-03T18:53:16.337Z,100.00
2022-08-03T18:56:08.633Z,100.00
2022-08-03T18:58:52.397Z,100.00
2022-08-03T19:02:00.185Z,100.00
2022-08-03T19:04:34.190Z,100.00
2022-08-03T19:07:24.892Z,100.00
2022-08-03T19:09:59.670Z,100.00
2022-08-03T19:12:53.079Z,100.00
2022-08-03T19:15:36.652Z,100.00
2022-08-03T19:18:08.830Z,100.00
2022-08-03T19:20:37.834Z,100.00
2022-08-03T19:23:04.340Z,100.00
2022-08-03T19:25:40.599Z,100.00
2022-08-03T19:28:09.163Z,100.00
2022-08-03T19:30:39.592Z,100.00
2022-08-03T19:33:11.332Z,100.00
2022-08-03T19:35:55.051Z,100.00
2022-08-03T19:38:28.146Z,100.00
2022-08-03T19:40:59.551Z,100.00
2022-08-03T19:43:33.032Z,100.00
2022-08-03T19:46:06.883Z,100.00
2022-08-03T19:48:36.572Z,100.00
2022-08-03T19:51:12.246Z,100.00
2022-08-03T19:53:45.122Z,100.00
2022-08-03T19:56:16.688Z,100.00
2022-08-03T19:58:43.598Z,100.00
2022-08-03T20:01:19.824Z,100.00
2022-08-03T20:03:49.155Z,100.00
2022-08-03T20:06:19.256Z,100.00
2022-08-03T20:08:45.888Z,100.00
2022-08-03T20:11:18.038Z,100.00
2022-08-03T20:13:48.309Z,100.00
2022-08-03T20:16:14.981Z,100.00
2022-08-03T20:18:43.330Z,100.00
2022-08-03T20:21:15.722Z,100.00
2022-08-03T20:24:01.726Z,100.00
2022-08-03T20:26:30.648Z,100.00
2022-08-03T20:29:09.197Z,100.00
2022-08-03T20:31:37.742Z,100.00
2022-08-03T20:34:06.251Z,100.00
2022-08-03T20:36:33.358Z,100.00
2022-08-03T20:39:00.208Z,100.00
2022-08-03T20:41:26.869Z,100.00
2022-08-03T20:43:53.537Z,100.00
2022-08-03T20:46:32.745Z,100.00
2022-08-03T20:49:06.130Z,100.00
2022-08-03T20:51:49.727Z,100.00
2022-08-03T20:54:28.755Z,100.00
2022-08-03T20:56:57.998Z,100.00
2022-08-03T20:59:36.569Z,100.00
2022-08-03T21:02:19.701Z,100.00
2022-08-03T21:04:56.474Z,100.00
2022-08-03T21:07:45.636Z,100.00
2022-08-03T21:10:15.660Z,100.00
2022-08-03T21:16:11.708Z,100.00
2022-08-03T21:18:42.474Z,100.00
2022-08-03T21:21:10.690Z,100.00
2022-08-03T21:23:48.704Z,100.00
2022-08-03T21:26:24.194Z,100.00
2022-08-03T21:28:53.943Z,100.00
2022-08-03T21:31:25.256Z,100.00
2022-08-03T21:33:57.087Z,100.00
2022-08-03T21:36:26.368Z,100.00
2022-08-03T21:38:56.597Z,100.00
2022-08-03T21:41:25.154Z,100.00
2022-08-03T21:43:51.690Z,100.00
2022-08-03T21:46:19.982Z,100.00
2022-08-03T21:48:54.522Z,100.00
2022-08-03T21:51:25.030Z,100.00
2022-08-03T21:54:03.838Z,100.00
2022-08-03T21:56:41.639Z,100.00
2022-08-03T21:59:16.033Z,100.00
2022-08-03T22:01:45.521Z,100.00
2022-08-03T22:04:50.817Z,100.00
2022-08-03T22:07:04.384Z,100.00
2022-08-03T22:09:31.275Z,100.00
2022-08-03T22:11:57.748Z,100.00
2022-08-03T22:14:25.638Z,100.00
2022-08-03T22:16:54.285Z,100.00
2022-08-03T22:19:21.204Z,100.00
2022-08-03T22:21:50.694Z,100.00
2022-08-03T22:24:24.033Z,100.00
2022-08-03T22:27:09.636Z,100.00
2022-08-03T22:29:38.317Z,100.00
2022-08-03T22:32:04.959Z,100.00
2022-08-03T22:34:31.632Z,100.00
2022-08-03T22:37:04.805Z,100.00
2022-08-03T22:39:32.189Z,100.00
2022-08-03T22:41:59.309Z,100.00
2022-08-03T22:44:27.096Z,100.00
2022-08-03T22:46:53.773Z,100.00
2022-08-03T22:49:20.772Z,100.00
2022-08-03T22:51:47.428Z,100.00
2022-08-03T22:54:14.427Z,100.00
2022-08-03T22:56:41.338Z,100.00
2022-08-03T22:59:39.141Z,100.00
2022-08-03T23:02:02.438Z,100.00
2022-08-03T23:04:44.432Z,100.00
2022-08-03T23:07:15.059Z,100.00
2022-08-03T23:09:45.061Z,100.00
2022-08-03T23:12:16.903Z,100.00
2022-08-03T23:14:51.763Z,100.00
2022-08-03T23:17:20.329Z,100.00
2022-08-03T23:19:47.269Z,100.00
2022-08-03T23:22:29.492Z,100.00
2022-08-03T23:24:57.507Z,100.00
2022-08-03T23:27:24.677Z,100.00
2022-08-03T23:29:52.383Z,100.00
2022-08-03T23:32:25.496Z,100.00
2022-08-03T23:35:14.640Z,100.00
2022-08-03T23:38:04.117Z,100.00
2022-08-03T23:40:31.293Z,100.00
2022-08-03T23:42:58.292Z,100.00
2022-08-03T23:45:27.764Z,100.00
2022-08-03T23:47:54.358Z,100.00
2022-08-03T23:50:21.084Z,100.00
2022-08-03T23:53:16.933Z,100.00
2022-08-03T23:56:03.482Z,100.00
2022-08-03T23:59:00.060Z,100.00
